KHDE/HDE METAR and TAF weather

Enter ICAO airport designator
Station Type Date Time Source
KHDE METAR 2020/06/03 15:35 UTC NOAA

KHDE 031535Z AUTO 06006KT 10SM CLR 24/15 A3000 RMK AO2 T02430145


Station Type Date Time Source
KHDE Decoded METAR 2020/06/03 15:35 UTC NOAA

Brewster Field Airport, NE, United States (KHDE) 40-27N 099-20W
Jun 03, 2020 - 11:35 AM EDT / 2020.06.03 1535 UTC
Wind: from the ENE (060 degrees) at 7 MPH (6 KT):0
Visibility: 10 mile(s):0
Sky conditions: clear
Temperature: 75.7 F (24.3 C)
Dew Point: 58.1 F (14.5 C)
Relative Humidity: 54%
Pressure (altimeter): 30 in. Hg (1015 hPa)
ob: KHDE 031535Z AUTO 06006KT 10SM CLR 24/15 A3000 RMK AO2 T02430145
cycle: 15

Station Type Date Time Source
KHDE TAF UTC NOAA

Error!

Example: see airport list